Check out our new BloomSky Weather System.

Active alerts

Galveston, TX
  Details for Galveston, TX Coastal Flood Advisory  +1 additional alert


Thunder radar  blitzortung!


Rain radar more information rain snow radar


Visit our other weather sites:

Template documentation
and downloads

And another site



Weather Underground History page Text

Daily Summary for January 25, 2018 Units:  Metric    English   Both
« Previous Day
Next Day »
Daily Weekly Monthly Yearly Custom
  High: Low: Average:
Temperature: -17.8 °C 0 °C 8.4 °C
Dew Point: -17.8 °C -1.3 °C 1.6 °C
Humidity: Humidity % 30 % 66 %
Wind Speed: 0 km/h 0 km/h 2.4 km/h
Wind Gust: 0 km/h - -
Wind:- - SE
Pressure: 0 hPa 1027.7 hPa -
Precipitation: 0 mm    
Historical Graphs
 
 
Tabular Data for January 25, 2018
Time Temperature Dew Point Pressure Wind Wind Speed Wind Gust Humidity Rainfall Rate (Hourly)
-17.8 °C -17.8 °C 0 hPa Calm     Humidity % 0 mm
00:03 3.3 °C 0.4 °C 1030.4 hPa Calm     81 % 0 mm
00:08 3.2 °C 0.4 °C 1030.4 hPa Calm     82 % 0 mm
00:13 3.2 °C 0.6 °C 1030.4 hPa Calm     83 % 0 mm
00:18 3.2 °C 0.6 °C 1030.4 hPa Calm     83 % 0 mm
00:23 3.3 °C 0.7 °C 1030.4 hPa Calm     83 % 0 mm
00:28 3.3 °C 0.9 °C 1030.4 hPa Calm     84 % 0 mm
00:33 3.3 °C 0.9 °C 1030.4 hPa Calm     84 % 0 mm
00:39 3.3 °C 0.9 °C 1030.4 hPa Calm     84 % 0 mm
00:44 3.2 °C 0.8 °C 1030.4 hPa Calm     84 % 0 mm
00:49 2.9 °C 0.3 °C 1030.4 hPa Calm     83 % 0 mm
00:54 2.7 °C 0.1 °C 1030.4 hPa Calm     83 % 0 mm
00:59 2.4 °C 0 °C 1030.4 hPa Calm     84 % 0 mm
01:04 2.1 °C -0.3 °C 1030.4 hPa Calm     84 % 0 mm
01:09 2.1 °C 0 °C 1030.4 hPa Calm     86 % 0 mm
01:14 2.2 °C 0.3 °C 1030.4 hPa Calm     87 % 0 mm
01:19 2.4 °C 0.5 °C 1030.4 hPa Calm     87 % 0 mm
01:24 2.4 °C 0.5 °C 1030.4 hPa Calm     87 % 0 mm
01:29 2.2 °C 0.3 °C 1030.4 hPa Calm     87 % 0 mm
01:34 2.2 °C 0.3 °C 1030.4 hPa Calm     87 % 0 mm
01:39 2 °C 0.1 °C 1030.4 hPa Calm     87 % 0 mm
01:44 1.8 °C -0.1 °C 1030.4 hPa Calm     87 % 0 mm
01:49 1.9 °C 0 °C 1030.4 hPa Calm     87 % 0 mm
01:54 1.9 °C 0.1 °C 1030.4 hPa Calm     88 % 0 mm
01:59 1.8 °C 0 °C 1030.4 hPa Calm     88 % 0 mm
02:04 1.7 °C -0.1 °C 1030.4 hPa Calm     88 % 0 mm
02:09 1.5 °C -0.3 °C 1030.4 hPa Calm     88 % 0 mm
02:14 1.3 °C -0.3 °C 1030.4 hPa Calm     89 % 0 mm
02:19 1.3 °C -0.2 °C 1030.4 hPa Calm     90 % 0 mm
02:25 1.3 °C -0.2 °C 1030.4 hPa Calm     90 % 0 mm
02:30 1.3 °C -0.2 °C 1030.4 hPa Calm     90 % 0 mm
02:35 1.4 °C -0.1 °C 1030.4 hPa Calm     90 % 0 mm
02:40 1.6 °C 0.3 °C 1030.4 hPa Calm     91 % 0 mm
02:45 1.7 °C 0.4 °C 1030.4 hPa Calm     91 % 0 mm
02:50 1.7 °C 0.2 °C 1030.4 hPa Calm     90 % 0 mm
02:55 1.7 °C 0.2 °C 1030.4 hPa Calm     90 % 0 mm
03:00 1.7 °C 0.4 °C 1030.4 hPa Calm     91 % 0 mm
03:05 1.7 °C 0.4 °C 1030.4 hPa Calm     91 % 0 mm
03:10 1.5 °C 0.2 °C 1030.4 hPa Calm     91 % 0 mm
03:15 1.3 °C -0.2 °C 1030.4 hPa Calm     90 % 0 mm
03:20 1.3 °C -0.2 °C 1030.4 hPa Calm     90 % 0 mm
03:25 1.2 °C -0.1 °C 1030.4 hPa Calm     91 % 0 mm
03:30 1.1 °C -0.2 °C 1030.4 hPa Calm     91 % 0 mm
03:35 0.9 °C -0.4 °C 1030.4 hPa Calm     91 % 0 mm
03:40 0.9 °C -0.4 °C 1030.4 hPa Calm     91 % 0 mm
03:45 1 °C -0.2 °C 1030.4 hPa Calm     92 % 0 mm
03:50 1.1 °C -0.1 °C 1030.4 hPa Calm     92 % 0 mm
03:55 1.1 °C -0.1 °C 1030.4 hPa Calm     92 % 0 mm
04:00 0.9 °C -0.4 °C 1030.4 hPa Calm     91 % 0 mm
04:05 0.8 °C -0.5 °C 1030.4 hPa Calm     91 % 0 mm
04:10 0.6 °C -0.7 °C 1030.4 hPa Calm     91 % 0 mm
04:15 0.4 °C -0.9 °C 1030.4 hPa Calm     91 % 0 mm
04:20 0.4 °C -0.7 °C 1030.4 hPa Calm     92 % 0 mm
04:25 0.5 °C -0.6 °C 1030.4 hPa Calm     92 % 0 mm
04:30 0.5 °C -0.6 °C 1030.4 hPa Calm     92 % 0 mm
04:36 0.4 °C -0.7 °C 1030.4 hPa Calm     92 % 0 mm
04:41 0.4 °C -0.7 °C 1030.4 hPa Calm     92 % 0 mm
04:46 0.4 °C -0.6 °C 1030.4 hPa Calm     93 % 0 mm
04:51 0.5 °C -0.5 °C 1030.4 hPa Calm     93 % 0 mm
04:56 0.6 °C -0.4 °C 1030.4 hPa Calm     93 % 0 mm
05:01 0.6 °C -0.4 °C 1030.4 hPa Calm     93 % 0 mm
05:06 0.6 °C -0.4 °C 1030.4 hPa Calm     93 % 0 mm
05:11 0.5 °C -0.5 °C 1030.4 hPa Calm     93 % 0 mm
05:16 0.5 °C -0.5 °C 1030.4 hPa Calm     93 % 0 mm
05:21 0.6 °C -0.4 °C 1030.7 hPa Calm     93 % 0 mm
05:26 0.5 °C -0.5 °C 1030.7 hPa Calm     93 % 0 mm
05:31 0.5 °C -0.5 °C 1030.7 hPa Calm     93 % 0 mm
05:36 0.4 °C -0.6 °C 1030.7 hPa Calm     93 % 0 mm
05:41 0.4 °C -0.5 °C 1030.7 hPa Calm     94 % 0 mm
05:46 0.6 °C -0.3 °C 1030.7 hPa Calm     94 % 0 mm
05:51 0.6 °C -0.4 °C 1030.7 hPa Calm     93 % 0 mm
05:56 0.5 °C -0.5 °C 1030.7 hPa Calm     93 % 0 mm
06:01 0.5 °C -0.5 °C 1030.7 hPa Calm     93 % 0 mm
06:06 0.4 °C -0.6 °C 1030.7 hPa Calm     93 % 0 mm
06:11 0.4 °C -0.6 °C 1030.7 hPa Calm     93 % 0 mm
06:16 0.2 °C -0.8 °C 1030.7 hPa Calm     93 % 0 mm
06:21 0.2 °C -0.7 °C 1030.7 hPa Calm     94 % 0 mm
06:26 0.3 °C -0.6 °C 1030.7 hPa Calm     94 % 0 mm
06:31 0.3 °C -0.6 °C 1030.7 hPa Calm     94 % 0 mm
06:36 0.3 °C -0.6 °C 1030.7 hPa Calm     94 % 0 mm
06:41 0.3 °C -0.6 °C 1030.7 hPa Calm     94 % 0 mm
06:46 0.4 °C -0.5 °C 1031 hPa Calm     94 % 0 mm
06:51 0.4 °C -0.5 °C 1031 hPa Calm     94 % 0 mm
06:56 0.3 °C -0.6 °C 1031 hPa Calm     94 % 0 mm
07:02 0.2 °C -0.7 °C 1031 hPa Calm     94 % 0 mm
07:07 0.1 °C -0.8 °C 1031 hPa Calm     94 % 0 mm
07:12 0 °C -0.8 °C 1031 hPa Calm     94 % 0 mm
07:17 0.2 °C -0.7 °C 1031 hPa Calm     94 % 0 mm
07:22 0.3 °C -0.6 °C 1031 hPa Calm     94 % 0 mm
07:27 0.3 °C -0.6 °C 1031 hPa Calm   1.6 km/h 94 % 0 mm
07:32 0.4 °C -0.5 °C 1031 hPa SE 1.6 km/h 1.6 km/h 94 % 0 mm
07:37 0.4 °C -0.5 °C 1031 hPa Calm   1.6 km/h 94 % 0 mm
07:42 0.6 °C -0.1 °C 1031 hPa Calm   1.6 km/h 95 % 0 mm
07:47 0.8 °C 0.1 °C 1031 hPa Calm   1.6 km/h 95 % 0 mm
07:52 1.2 °C 0.5 °C 1031 hPa Calm   1.6 km/h 95 % 0 mm
07:57 1.7 °C 1 °C 1031 hPa Calm   1.6 km/h 95 % 0 mm
08:02 2.1 °C 1.4 °C 1031.4 hPa Calm   1.6 km/h 95 % 0 mm
08:07 2.6 °C 1.9 °C 1031.4 hPa Calm   1.6 km/h 95 % 0 mm
08:12 3 °C 2.3 °C 1031.4 hPa Calm   1.6 km/h 95 % 0 mm
08:17 3.6 °C 2.9 °C 1031.4 hPa Calm   1.6 km/h 95 % 0 mm
08:22 4.1 °C 3.4 °C 1031.4 hPa Calm   1.6 km/h 95 % 0 mm
08:27 4.4 °C 3.4 °C 1031.4 hPa Calm   1.6 km/h 93 % 0 mm
08:32 4.9 °C 3.9 °C 1031.4 hPa Calm   1.6 km/h 93 % 0 mm
08:37 5.5 °C 4.3 °C 1031.4 hPa Calm   1.6 km/h 92 % 0 mm
08:42 5.8 °C 4.3 °C 1031.4 hPa Calm   1.6 km/h 90 % 0 mm
08:47 6.6 °C 5.1 °C 1031.4 hPa Calm   1.6 km/h 90 % 0 mm
08:52 7.5 °C 5.6 °C 1031.4 hPa Calm   1.6 km/h 88 % 0 mm
08:57 7.9 °C 5 °C 1031.4 hPa Calm   1.6 km/h 82 % 0 mm
09:02 8.2 °C 5 °C 1031.7 hPa ENE 1.6 km/h 1.6 km/h 80 % 0 mm
09:07 8.6 °C 5 °C 1031.4 hPa Calm   1.6 km/h 78 % 0 mm
09:12 9.1 °C 5.3 °C 1031.7 hPa Calm   3.2 km/h 77 % 0 mm
09:17 9.7 °C 5.3 °C 1031.7 hPa Calm   3.2 km/h 74 % 0 mm
09:22 10.2 °C 5.4 °C 1031.7 hPa East 1.6 km/h 3.2 km/h 72 % 0 mm
09:27 10.7 °C 5 °C 1031.7 hPa Calm   3.2 km/h 68 % 0 mm
09:32 11.1 °C 5.2 °C 1031.7 hPa Calm   3.2 km/h 67 % 0 mm
09:37 11.6 °C 5.5 °C 1032.1 hPa Calm   3.2 km/h 66 % 0 mm
09:42 11.9 °C 5.5 °C 1032.1 hPa Calm   3.2 km/h 65 % 0 mm
09:47 12.4 °C 5.6 °C 1032.1 hPa SSE 3.2 km/h 4.8 km/h 63 % 0 mm
09:52 12.7 °C 4.6 °C 1032.1 hPa East 4.8 km/h 4.8 km/h 58 % 0 mm
09:57 12.7 °C 3.9 °C 1032.1 hPa East 3.2 km/h 8 km/h 55 % 0 mm
10:02 12.9 °C 4.1 °C 1032.1 hPa ESE 4.8 km/h 8 km/h 55 % 0 mm
10:07 13.1 °C 3.2 °C 1032.1 hPa ESE 1.6 km/h 9.7 km/h 51 % 0 mm
10:12 13.3 °C 3.6 °C 1032.1 hPa East 8 km/h 11.3 km/h 52 % 0 mm
10:17 13.4 °C 2.9 °C 1032.1 hPa ENE 4.8 km/h 11.3 km/h 49 % 0 mm
10:22 13.5 °C 2.7 °C 1032.1 hPa SSE 4.8 km/h 11.3 km/h 48 % 0 mm
10:27 13.8 °C 2.7 °C 1031.7 hPa East 4.8 km/h 12.9 km/h 47 % 0 mm
10:32 13.9 °C 2.2 °C 1032.1 hPa WNW 1.6 km/h 12.9 km/h 45 % 0 mm
10:37 13.7 °C 1.7 °C 1032.1 hPa SSE 3.2 km/h 12.9 km/h 44 % 0 mm
10:42 13.7 °C 2.3 °C 1031.7 hPa ESE 3.2 km/h 11.3 km/h 46 % 0 mm
10:47 14 °C 1.9 °C 1031.7 hPa ENE 4.8 km/h 14.5 km/h 44 % 0 mm
10:52 14.4 °C 2.3 °C 1031.7 hPa SSE 6.4 km/h 14.5 km/h 44 % 0 mm
10:57 14.7 °C 2.2 °C 1031.7 hPa Calm   14.5 km/h 43 % 0 mm
11:02 14.8 °C 2 °C 1031.7 hPa SE 9.7 km/h 12.9 km/h 42 % 0 mm
11:07 14.9 °C 2.1 °C 1031.4 hPa ESE 12.9 km/h 12.9 km/h 42 % 0 mm
11:12 14.9 °C 1.8 °C 1031.4 hPa SSE 3.2 km/h 16.1 km/h 41 % 0 mm
11:17 14.9 °C 1.8 °C 1031.4 hPa NE 3.2 km/h 16.1 km/h 41 % 0 mm
11:22 14.9 °C 1.4 °C 1031.4 hPa SE 4.8 km/h 16.1 km/h 40 % 0 mm
11:27 14.9 °C 1.1 °C 1031.4 hPa East 8 km/h 12.9 km/h 39 % 0 mm
11:32 15 °C 1.2 °C 1031 hPa SSE 1.6 km/h 12.9 km/h 39 % 0 mm
11:37 15.2 °C 0.6 °C 1031 hPa SSE 11.3 km/h 11.3 km/h 37 % 0 mm
11:42 15.2 °C -0.6 °C 1031 hPa SE 6.4 km/h 14.5 km/h 34 % 0 mm
11:47 15.3 °C -0.9 °C 1031 hPa ESE 9.7 km/h 14.5 km/h 33 % 0 mm
11:52 15.3 °C -0.9 °C 1031 hPa ENE 3.2 km/h 14.5 km/h 33 % 0 mm
11:57 15.5 °C -0.3 °C 1031 hPa ESE 3.2 km/h 14.5 km/h 34 % 0 mm
12:02 15.9 °C 0.1 °C 1030.7 hPa SSE 4.8 km/h 14.5 km/h 34 % 0 mm
12:07 16.1 °C 0.2 °C 1030.7 hPa SE 6.4 km/h 14.5 km/h 34 % 0 mm
12:12 16.3 °C -0.4 °C 1030.7 hPa SE 3.2 km/h 12.9 km/h 32 % 0 mm
12:17 16.4 °C -0.3 °C 1030.4 hPa ENE 4.8 km/h 17.7 km/h 32 % 0 mm
12:22 16.6 °C -0.2 °C 1030.4 hPa ESE 9.7 km/h 17.7 km/h 32 % 0 mm
12:27 16.3 °C -0.4 °C 1030.4 hPa ENE 4.8 km/h 17.7 km/h 32 % 0 mm
12:32 16.4 °C 0.1 °C 1030.4 hPa South 6.4 km/h 14.5 km/h 33 % 0 mm
12:37 16.6 °C -0.2 °C 1030.4 hPa SSE 6.4 km/h 14.5 km/h 32 % 0 mm
12:42 16.6 °C 0.7 °C 1030 hPa NE 4.8 km/h 14.5 km/h 34 % 0 mm
12:47 16.5 °C 0.6 °C 1030 hPa ESE 1.6 km/h 16.1 km/h 34 % 0 mm
12:52 16.3 °C 0.4 °C 1030 hPa ESE 1.6 km/h 16.1 km/h 34 % 0 mm
12:57 16.3 °C 0 °C 1030 hPa ENE 6.4 km/h 16.1 km/h 33 % 0 mm
13:01 16.2 °C 0.3 °C 1029.7 hPa SE 4.8 km/h 16.1 km/h 34 % 0 mm
13:07 16.3 °C 0 °C 1029.7 hPa SSE 8 km/h 16.1 km/h 33 % 0 mm
13:12 16.2 °C -1 °C 1029.3 hPa SE 11.3 km/h 19.3 km/h 31 % 0 mm
13:17 16.1 °C -1 °C 1029.3 hPa SE 3.2 km/h 20.9 km/h 31 % 0 mm
13:22 16.1 °C -0.6 °C 1029.3 hPa SE 3.2 km/h 20.9 km/h 32 % 0 mm
13:27 16.2 °C -0.5 °C 1029.3 hPa ESE 3.2 km/h 20.9 km/h 32 % 0 mm
13:32 16.3 °C -0.9 °C 1029.3 hPa South 3.2 km/h 12.9 km/h 31 % 0 mm
13:37 16.3 °C -1.3 °C 1029 hPa East 4.8 km/h 12.9 km/h 30 % 0 mm
13:42 16.2 °C -1 °C 1029 hPa SE 3.2 km/h 14.5 km/h 31 % 0 mm
13:47 16.2 °C -0.5 °C 1029 hPa East 4.8 km/h 14.5 km/h 32 % 0 mm
13:52 16.3 °C -0.4 °C 1028.7 hPa ENE 6.4 km/h 14.5 km/h 32 % 0 mm
13:57 16.2 °C -0.5 °C 1028.7 hPa SE 6.4 km/h 14.5 km/h 32 % 0 mm
14:02 16.3 °C 0 °C 1028.7 hPa ESE 4.8 km/h 12.9 km/h 33 % 0 mm
14:07 16.2 °C 0.3 °C 1028.7 hPa SSW 3.2 km/h 11.3 km/h 34 % 0 mm
14:12 16.5 °C 0.6 °C 1028.7 hPa East 9.7 km/h 12.9 km/h 34 % 0 mm
14:16 16.4 °C 0.5 °C 1028.7 hPa ESE 4.8 km/h 12.9 km/h 34 % 0 mm
14:22 16.4 °C 0.1 °C 1028.7 hPa SSE 14.5 km/h 16.1 km/h 33 % 0 mm
14:27 16.3 °C -0.4 °C 1028.7 hPa SSE 4.8 km/h 16.1 km/h 32 % 0 mm
14:32 16.1 °C -1 °C 1028.3 hPa SSE 6.4 km/h 17.7 km/h 31 % 0 mm
14:37 16.1 °C -0.6 °C 1028.3 hPa SE 4.8 km/h 17.7 km/h 32 % 0 mm
14:41 15.9 °C -0.8 °C 1028.3 hPa ESE 4.8 km/h 17.7 km/h 32 % 0 mm
14:46 15.8 °C 0.4 °C 1028.3 hPa ESE 4.8 km/h 12.9 km/h 35 % 0 mm
14:51 15.9 °C 0.8 °C 1028.3 hPa ESE 3.2 km/h 12.9 km/h 36 % 0 mm
14:56 16.1 °C 1 °C 1028 hPa SSE 1.6 km/h 11.3 km/h 36 % 0 mm
15:01 16.1 °C 1 °C 1028 hPa SSE 6.4 km/h 11.3 km/h 36 % 0 mm
15:06 16.1 °C 1.4 °C 1028 hPa East 12.9 km/h 12.9 km/h 37 % 0 mm
15:11 15.9 °C 1.6 °C 1028 hPa ESE 6.4 km/h 16.1 km/h 38 % 0 mm
15:16 15.8 °C 1.5 °C 1028 hPa SSE 6.4 km/h 16.1 km/h 38 % 0 mm
15:21 15.7 °C 1.4 °C 1028 hPa ESE 14.5 km/h 17.7 km/h 38 % 0 mm
15:26 15.7 °C 2.1 °C 1027.7 hPa ESE 3.2 km/h 17.7 km/h 40 % 0 mm
15:31 15.7 °C 2.1 °C 1027.7 hPa SSE 4.8 km/h 17.7 km/h 40 % 0 mm
15:36 15.7 °C 2.5 °C 1027.7 hPa SE 11.3 km/h 14.5 km/h 41 % 0 mm
15:41 15.7 °C 2.8 °C 1027.7 hPa East 1.6 km/h 14.5 km/h 42 % 0 mm
15:46 15.7 °C 2.1 °C 1027.7 hPa East 8 km/h 14.5 km/h 40 % 0 mm
15:51 15.6 °C 2 °C 1028 hPa East 3.2 km/h 14.5 km/h 40 % 0 mm
15:56 15.6 °C 2.4 °C 1028 hPa SE 4.8 km/h 14.5 km/h 41 % 0 mm
16:01 15.7 °C 2.1 °C 1027.7 hPa East 11.3 km/h 14.5 km/h 40 % 0 mm
16:06 15.5 °C 2 °C 1027.7 hPa SE 3.2 km/h 14.5 km/h 40 % 0 mm
16:11 15.5 °C 2.3 °C 1027.7 hPa ESE 1.6 km/h 14.5 km/h 41 % 0 mm
16:16 15.6 °C 2.4 °C 1028 hPa South 6.4 km/h 14.5 km/h 41 % 0 mm
16:21 15.6 °C 2.7 °C 1028 hPa SSE 4.8 km/h 17.7 km/h 42 % 0 mm
16:26 15.5 °C 2.3 °C 1028 hPa SE 8 km/h 17.7 km/h 41 % 0 mm
16:31 15.3 °C 2.5 °C 1028 hPa SSE 4.8 km/h 17.7 km/h 42 % 0 mm
16:36 15.2 °C 2.4 °C 1028 hPa SSE 11.3 km/h 14.5 km/h 42 % 0 mm
16:41 15 °C 2.2 °C 1028 hPa East 9.7 km/h 14.5 km/h 42 % 0 mm
16:46 14.9 °C 2.8 °C 1027.7 hPa ESE 4.8 km/h 14.5 km/h 44 % 0 mm
16:51 14.8 °C 3 °C 1027.7 hPa SSE 9.7 km/h 14.5 km/h 45 % 0 mm
16:56 14.6 °C 2.8 °C 1027.7 hPa ESE 8 km/h 17.7 km/h 45 % 0 mm
17:01 14.5 °C 3 °C 1027.7 hPa ESE 8 km/h 17.7 km/h 46 % 0 mm
17:06 14.3 °C 2.8 °C 1027.7 hPa South 6.4 km/h 17.7 km/h 46 % 0 mm
17:11 14.2 °C 3 °C 1027.7 hPa SE 6.4 km/h 19.3 km/h 47 % 0 mm
17:16 14.1 °C 3.3 °C 1027.7 hPa SE 8 km/h 19.3 km/h 48 % 0 mm
17:21 13.9 °C 3.1 °C 1027.7 hPa ESE 6.4 km/h 19.3 km/h 48 % 0 mm
17:26 13.7 °C 3.2 °C 1028 hPa SE 6.4 km/h 19.3 km/h 49 % 0 mm
17:31 13.6 °C 3.4 °C 1028 hPa ESE 11.3 km/h 19.3 km/h 50 % 0 mm
17:36 13.3 °C 3.1 °C 1028 hPa ESE 4.8 km/h 17.7 km/h 50 % 0 mm
17:41 13.2 °C 3 °C 1028 hPa SE 3.2 km/h 17.7 km/h 50 % 0 mm
17:46 12.9 °C 2.7 °C 1027.7 hPa SSE 8 km/h 17.7 km/h 50 % 0 mm
17:51 12.8 °C 2.6 °C 1027.7 hPa East 6.4 km/h 14.5 km/h 50 % 0 mm
17:56 12.6 °C 2.4 °C 1027.7 hPa ESE 6.4 km/h 14.5 km/h 50 % 0 mm
18:01 12.4 °C 2.5 °C 1027.7 hPa East 9.7 km/h 14.5 km/h 51 % 0 mm
18:06 12.3 °C 2.4 °C 1027.7 hPa ESE 9.7 km/h 16.1 km/h 51 % 0 mm
18:11 12.1 °C 2.5 °C 1028 hPa ESE 6.4 km/h 16.1 km/h 52 % 0 mm
18:16 12 °C 2.7 °C 1027.7 hPa SSE 3.2 km/h 16.1 km/h 53 % 0 mm
18:21 11.8 °C 2.8 °C 1028 hPa South 11.3 km/h 14.5 km/h 54 % 0 mm
18:26 11.7 °C 3 °C 1028 hPa ESE 9.7 km/h 12.9 km/h 55 % 0 mm
18:31 11.6 °C 2.9 °C 1027.7 hPa Calm   16.1 km/h 55 % 0 mm
18:36 11.4 °C 2.9 °C 1027.7 hPa East 4.8 km/h 16.1 km/h 56 % 0 mm
18:41 11.3 °C 2.8 °C 1027.7 hPa ESE 3.2 km/h 16.1 km/h 56 % 0 mm
18:46 11.3 °C 2.8 °C 1028 hPa SE 1.6 km/h 11.3 km/h 56 % 0 mm
18:51 11.1 °C 2.9 °C 1028 hPa ESE 1.6 km/h 11.3 km/h 57 % 0 mm
18:56 11 °C 2.8 °C 1028 hPa East 8 km/h 11.3 km/h 57 % 0 mm
19:01 10.9 °C 3 °C 1027.7 hPa ESE 3.2 km/h 9.7 km/h 58 % 0 mm
19:06 10.9 °C 3 °C 1027.7 hPa South 3.2 km/h 9.7 km/h 58 % 0 mm
19:11 10.8 °C 3.1 °C 1028 hPa South 3.2 km/h 9.7 km/h 59 % 0 mm
19:16 10.7 °C 3.2 °C 1028 hPa ESE 3.2 km/h 9.7 km/h 60 % 0 mm
19:21 10.7 °C 3.5 °C 1028 hPa ESE 1.6 km/h 9.7 km/h 61 % 0 mm
19:26 10.6 °C 3.6 °C 1028 hPa East 4.8 km/h 9.7 km/h 62 % 0 mm
19:31 10.5 °C 3.5 °C 1028 hPa SE 3.2 km/h 8 km/h 62 % 0 mm
19:36 10.4 °C 3.7 °C 1028 hPa ESE 1.6 km/h 8 km/h 63 % 0 mm
19:41 10.3 °C 3.8 °C 1028 hPa SE 1.6 km/h 6.4 km/h 64 % 0 mm
19:46 10.2 °C 3.9 °C 1028 hPa Calm   4.8 km/h 65 % 0 mm
19:51 10.1 °C 3.8 °C 1028 hPa Calm   4.8 km/h 65 % 0 mm
19:56 9.9 °C 3.8 °C 1028 hPa Calm   4.8 km/h 66 % 0 mm
20:01 9.9 °C 4.1 °C 1028 hPa SE 1.6 km/h 8 km/h 67 % 0 mm
20:06 9.8 °C 4 °C 1028 hPa Calm   8 km/h 67 % 0 mm
20:11 9.8 °C 4.2 °C 1028 hPa Calm   8 km/h 68 % 0 mm
20:16 9.8 °C 4.2 °C 1028 hPa Calm   6.4 km/h 68 % 0 mm
20:21 9.7 °C 4.1 °C 1028.3 hPa ESE 3.2 km/h 6.4 km/h 68 % 0 mm
20:26 9.6 °C 4 °C 1028 hPa ESE 1.6 km/h 4.8 km/h 68 % 0 mm
20:31 9.6 °C 4 °C 1028 hPa SE 1.6 km/h 4.8 km/h 68 % 0 mm
20:36 9.6 °C 4 °C 1028.3 hPa SE 1.6 km/h 4.8 km/h 68 % 0 mm
20:41 9.5 °C 3.9 °C 1028.3 hPa Calm   6.4 km/h 68 % 0 mm
20:46 9.4 °C 3.6 °C 1028.3 hPa Calm   6.4 km/h 67 % 0 mm
20:51 9.3 °C 3.5 °C 1028 hPa SE 3.2 km/h 6.4 km/h 67 % 0 mm
20:56 9.3 °C 3.3 °C 1028.3 hPa SSE 1.6 km/h 6.4 km/h 66 % 0 mm
21:01 9.3 °C 3.1 °C 1028 hPa Calm   6.4 km/h 65 % 0 mm
21:06 9.3 °C 3.1 °C 1028 hPa Calm   6.4 km/h 65 % 0 mm
21:11 9.3 °C 3.1 °C 1028 hPa SE 3.2 km/h 6.4 km/h 65 % 0 mm
21:16 9.3 °C 3.1 °C 1028.3 hPa SE 1.6 km/h 6.4 km/h 65 % 0 mm
21:21 9.3 °C 3.1 °C 1028 hPa SE 1.6 km/h 6.4 km/h 65 % 0 mm
21:26 9.2 °C 3.2 °C 1028.3 hPa SE 1.6 km/h 6.4 km/h 66 % 0 mm
21:31 9.2 °C 3.2 °C 1028.3 hPa SSE 1.6 km/h 6.4 km/h 66 % 0 mm
21:36 9.2 °C 3.2 °C 1028.7 hPa ESE 1.6 km/h 6.4 km/h 66 % 0 mm
21:41 9.1 °C 3.3 °C 1028.3 hPa Calm   6.4 km/h 67 % 0 mm
21:46 9 °C 3.2 °C 1028.3 hPa Calm   3.2 km/h 67 % 0 mm
21:51 8.9 °C 3.3 °C 1028.3 hPa Calm   1.6 km/h 68 % 0 mm
21:56 8.8 °C 3.2 °C 1028.3 hPa Calm   1.6 km/h 68 % 0 mm
22:02 8.7 °C 3.3 °C 1028.3 hPa Calm   1.6 km/h 69 % 0 mm
22:07 8.6 °C 3.2 °C 1028.3 hPa Calm   1.6 km/h 69 % 0 mm
22:12 8.6 °C 3.4 °C 1028.3 hPa Calm   3.2 km/h 70 % 0 mm
22:17 8.6 °C 3.4 °C 1028.3 hPa Calm   3.2 km/h 70 % 0 mm
22:22 8.5 °C 3.3 °C 1028.3 hPa Calm   3.2 km/h 70 % 0 mm
22:27 8.4 °C 3.4 °C 1028.3 hPa Calm   1.6 km/h 71 % 0 mm
22:32 8.4 °C 3.4 °C 1028.3 hPa Calm   1.6 km/h 71 % 0 mm
22:37 8.3 °C 3.4 °C 1028.3 hPa Calm   1.6 km/h 71 % 0 mm
22:42 8.2 °C 3.5 °C 1028.3 hPa Calm   1.6 km/h 72 % 0 mm
22:46 8.1 °C 3.4 °C 1028.3 hPa Calm     72 % 0 mm
22:52 8.1 °C 3.7 °C 1028.3 hPa Calm   1.6 km/h 74 % 0 mm
22:57 8.1 °C 3.7 °C 1028.3 hPa Calm   1.6 km/h 74 % 0 mm
23:02 8 °C 3.8 °C 1028.3 hPa Calm   1.6 km/h 75 % 0 mm
23:07 7.9 °C 3.7 °C 1028.3 hPa Calm   1.6 km/h 75 % 0 mm
23:12 7.9 °C 3.9 °C 1028.3 hPa Calm   1.6 km/h 76 % 0 mm
23:17 8.1 °C 4.3 °C 1028.3 hPa Calm   1.6 km/h 77 % 0 mm
23:22 8.1 °C 4.3 °C 1028.3 hPa Calm   1.6 km/h 77 % 0 mm
23:27 8.1 °C 4.1 °C 1028 hPa Calm   1.6 km/h 76 % 0 mm
23:32 8.1 °C 4.3 °C 1028 hPa Calm   1.6 km/h 77 % 0 mm
23:37 8 °C 4.2 °C 1028 hPa Calm     77 % 0 mm
23:42 7.9 °C 4.3 °C 1027.7 hPa Calm     78 % 0 mm
23:47 8 °C 4.4 °C 1027.7 hPa Calm   1.6 km/h 78 % 0 mm
23:52 7.9 °C 4.3 °C 1027.7 hPa Calm   1.6 km/h 78 % 0 mm
23:57 7.9 °C 4.3 °C 1027.7 hPa Calm   1.6 km/h 78 % 0 mm
Spring, Texas: Villages of Bridgestone
Compliments of Weather Underground - 2.75 mb

Script developed by  Jim McMurry - jmcmurry@mwt.net Adapted for the template by  Wim van der Kuil - Leuven-Template.eu

You find our weather info also at:

UK Metoffice

WeatherCloud

Weather Underground

Mid-South Weather Network

AWEKAS

Citizen Weather Observer Program (CWOP)

HAMweather, WeatherForYou, PWS Weather

Equipment we use:

Weather-station
Davis Vantage Vue

Weather-program
Meteohub

Weather-server
Debian 7.9 x86 (Guest)

Provider
DreamHost

Davis Vantage Vue

Meteohub

Debian 7.9 x86 (Guest)

DreamHost